This is the latest recevied weather packets stored in our database for station/object KD5GAT-51. If no packets are shown the sender has not sent any weather packets the latest 10 day(s).
| Time | Temp. | Humidity | Pressure | Rain* | Wind** | Luminosity | Snow |
|---|---|---|---|---|---|---|---|
| 1777738235 | 22.22° C | 42% | 1025.1 hPa | - | - | - | - |
| 1777737335 | 22.22° C | 45% | 1025 hPa | - | - | - | - |
| 1777736434 | 21.67° C | 46% | 1024.9 hPa | - | - | - | - |
| 1777735534 | 20.56° C | 50% | 1024.9 hPa | - | - | - | - |
| 1777734634 | 20° C | 55% | 1024.7 hPa | - | - | - | - |
| 1777733734 | 19.44° C | 57% | 1024.7 hPa | - | - | - | - |
| 1777732834 | 18.33° C | 63% | 1024.5 hPa | - | - | - | - |
| 1777731934 | 17.22° C | 66% | 1024.2 hPa | - | - | - | - |
| 1777731033 | 17.22° C | 68% | 1024.1 hPa | - | - | - | - |
| 1777730133 | 15.56° C | 74% | 1024.1 hPa | - | - | - | - |
| 1777729233 | 15.56° C | 77% | 1024 hPa | - | - | - | - |
| 1777728333 | 15° C | 84% | 1023.9 hPa | - | - | - | - |
| 1777727433 | 13.89° C | 96% | 1023.7 hPa | - | - | - | - |
| 1777726533 | 12.22° C | 100% | 1023.4 hPa | - | - | - | - |
| 1777725633 | 11.11° C | 100% | 1023.1 hPa | - | - | - | - |
| 1777724732 | 10.56° C | 100% | 1022.9 hPa | - | - | - | - |
| 1777723832 | 10° C | 100% | 1022.5 hPa | - | - | - | - |
| 1777722932 | 10° C | 100% | 1022.5 hPa | - | - | - | - |
| 1777722032 | 9.44° C | 100% | 1022.3 hPa | - | - | - | - |
| 1777721132 | 9.44° C | 100% | 1022.3 hPa | - | - | - | - |
| 1777720232 | 9.44° C | 100% | 1022.3 hPa | - | - | - | - |
| 1777719332 | 9.44° C | 100% | 1022.2 hPa | - | - | - | - |
| 1777718431 | 9.44° C | 100% | 1022.2 hPa | - | - | - | - |
| 1777717531 | 9.44° C | 100% | 1022 hPa | - | - | - | - |
| 1777716630 | 9.44° C | 100% | 1022 hPa | - | - | - | - |
* Rain since midnight (hover to see other rain measurements)
** Current wind speed in m/s (hover to see current wind gust speed)